createdAt,value
2022-10-18T00:00:53.215Z,19.02
2022-10-18T00:01:58.118Z,18.80
2022-10-18T00:03:01.185Z,22.35
2022-10-18T00:04:05.111Z,18.98
2022-10-18T00:05:08.728Z,19.45
2022-10-18T00:06:12.941Z,20.17
2022-10-18T00:07:15.827Z,20.60
2022-10-18T00:08:20.480Z,21.48
2022-10-18T00:09:23.579Z,22.25
2022-10-18T00:10:27.873Z,19.65
2022-10-18T00:11:30.799Z,19.63
2022-10-18T00:12:35.851Z,17.98
2022-10-18T00:13:38.927Z,26.13
2022-10-18T00:14:44.370Z,20.83
2022-10-18T00:15:51.180Z,23.67
2022-10-18T00:16:55.237Z,20.52
2022-10-18T00:17:58.191Z,20.48
2022-10-18T00:19:02.114Z,18.58
2022-10-18T00:20:06.788Z,29.85
2022-10-18T00:21:13.533Z,21.55
2022-10-18T00:22:16.460Z,21.20
2022-10-18T00:23:20.401Z,22.50
2022-10-18T00:24:23.259Z,20.10
2022-10-18T00:25:27.347Z,21.08
2022-10-18T00:26:31.397Z,22.60
2022-10-18T00:27:36.940Z,25.50
2022-10-18T00:28:40.631Z,20.65
2022-10-18T00:29:46.069Z,22.40
2022-10-18T00:31:58.006Z,20.77
2022-10-18T00:33:00.868Z,28.73
2022-10-18T00:34:06.317Z,23.35
2022-10-18T00:35:09.931Z,26.08
2022-10-18T00:36:14.662Z,27.05
2022-10-18T00:37:17.880Z,26.90
2022-10-18T00:38:21.813Z,24.90
2022-10-18T00:39:24.756Z,25.70
2022-10-18T00:40:28.821Z,27.38
2022-10-18T00:41:33.013Z,31.08
2022-10-18T00:42:39.858Z,22.85
2022-10-18T00:43:53.250Z,23.38
2022-10-18T00:45:08.997Z,26.48
2022-10-18T00:46:11.941Z,28.15
2022-10-18T00:47:18.225Z,25.77
2022-10-18T00:48:22.479Z,23.38
2022-10-18T00:49:28.329Z,25.85
2022-10-18T00:50:34.077Z,27.30
2022-10-18T00:51:41.811Z,24.88
2022-10-18T00:52:49.659Z,31.08
2022-10-18T00:53:52.821Z,33.88
2022-10-18T00:54:57.492Z,35.25
2022-10-18T00:56:01.560Z,33.63
2022-10-18T00:57:05.422Z,24.02
2022-10-18T00:58:09.979Z,24.77
2022-10-18T00:59:14.709Z,25.25
2022-10-18T01:00:20.758Z,25.70
2022-10-18T01:01:27.486Z,32.63
2022-10-18T01:02:34.031Z,22.80
2022-10-18T01:03:39.041Z,24.48
2022-10-18T01:04:42.157Z,22.98
2022-10-18T01:05:48.388Z,21.77
2022-10-18T01:08:12.120Z,23.67
2022-10-18T01:09:23.101Z,24.15
2022-10-18T01:10:31.150Z,23.52
2022-10-18T01:11:44.857Z,25.35
2022-10-18T01:12:54.263Z,23.30
2022-10-18T01:14:04.198Z,23.52
2022-10-18T01:15:12.932Z,25.58
2022-10-18T01:16:20.892Z,22.42
2022-10-18T01:17:31.829Z,23.23
2022-10-18T01:18:38.348Z,24.90
2022-10-18T01:20:17.081Z,23.08
2022-10-18T01:21:36.478Z,20.25
2022-10-18T01:22:43.849Z,18.05
2022-10-18T01:24:04.220Z,21.10
2022-10-18T01:25:17.438Z,23.27
2022-10-18T01:26:30.683Z,19.73
2022-10-18T01:27:43.250Z,25.83
2022-10-18T01:28:54.874Z,25.55
2022-10-18T01:30:30.180Z,24.95
2022-10-18T01:31:39.650Z,24.25
2022-10-18T01:32:46.691Z,27.63
2022-10-18T01:33:53.659Z,29.15
2022-10-18T01:34:59.830Z,33.58
2022-10-18T01:36:08.540Z,27.83
2022-10-18T01:37:15.101Z,27.13
2022-10-18T01:38:20.294Z,27.90
2022-10-18T01:39:26.368Z,23.42
2022-10-18T01:40:31.252Z,28.92
2022-10-18T01:41:35.818Z,25.02
2022-10-18T01:42:38.742Z,22.45
2022-10-18T01:43:43.643Z,25.60
2022-10-18T01:44:47.478Z,25.40
2022-10-18T01:45:51.569Z,23.10
2022-10-18T01:46:58.107Z,25.63
2022-10-18T01:48:01.669Z,26.98
2022-10-18T01:49:06.353Z,27.10
2022-10-18T01:50:09.863Z,28.60
2022-10-18T01:51:13.900Z,28.25
2022-10-18T01:52:17.279Z,23.67
2022-10-18T01:53:26.037Z,31.80
2022-10-18T01:54:32.049Z,31.13
2022-10-18T01:55:39.892Z,23.77
2022-10-18T01:56:48.465Z,28.10
2022-10-18T01:57:59.230Z,24.88
2022-10-18T01:59:09.128Z,30.10
2022-10-18T02:00:14.648Z,22.50
2022-10-18T02:01:22.140Z,24.92
2022-10-18T02:02:37.824Z,23.48
2022-10-18T02:03:44.512Z,24.75
2022-10-18T02:04:52.810Z,24.67
2022-10-18T02:05:59.518Z,25.55
2022-10-18T02:07:08.628Z,23.83
2022-10-18T02:08:23.707Z,27.75
2022-10-18T02:09:33.211Z,22.38
2022-10-18T02:10:40.460Z,22.80
2022-10-18T02:11:45.057Z,24.23
2022-10-18T02:12:48.991Z,31.70
2022-10-18T02:13:56.569Z,23.77
2022-10-18T02:15:01.110Z,25.98
2022-10-18T02:16:09.430Z,25.25
2022-10-18T02:17:13.266Z,25.08
2022-10-18T02:18:21.431Z,27.95
2022-10-18T02:19:26.984Z,21.80
2022-10-18T02:20:32.565Z,31.20
2022-10-18T02:21:35.683Z,27.85
2022-10-18T02:22:42.687Z,23.10
2022-10-18T02:23:46.982Z,20.90
2022-10-18T02:24:53.646Z,18.42
2022-10-18T02:25:56.690Z,23.38
2022-10-18T02:27:00.731Z,20.58
2022-10-18T02:28:05.508Z,20.80
2022-10-18T02:29:08.929Z,20.55
2022-10-18T02:30:15.589Z,19.33
2022-10-18T02:31:20.759Z,19.60
2022-10-18T02:32:29.183Z,19.25
2022-10-18T02:33:37.881Z,22.25
2022-10-18T02:34:44.881Z,17.58
2022-10-18T02:35:50.611Z,20.08
2022-10-18T02:36:55.847Z,20.13
2022-10-18T02:37:59.521Z,21.13
2022-10-18T02:39:05.798Z,18.75
2022-10-18T02:40:10.422Z,21.27
2022-10-18T02:41:14.430Z,22.90
2022-10-18T02:42:17.459Z,16.45
2022-10-18T02:43:21.397Z,21.17
2022-10-18T02:44:24.860Z,19.25
2022-10-18T02:45:28.909Z,19.25
2022-10-18T02:46:32.048Z,21.60
2022-10-18T02:47:36.039Z,19.92
2022-10-18T02:48:40.392Z,22.65
2022-10-18T02:49:44.399Z,22.17
2022-10-18T02:50:47.278Z,17.90
2022-10-18T02:51:51.261Z,24.55
2022-10-18T02:52:54.162Z,15.25
2022-10-18T02:53:58.740Z,15.95
2022-10-18T02:55:01.632Z,16.23
2022-10-18T02:56:06.034Z,15.75
2022-10-18T02:57:08.938Z,17.02
2022-10-18T02:58:13.058Z,14.80
2022-10-18T02:59:16.249Z,15.48
2022-10-18T03:00:20.489Z,16.92
2022-10-18T03:01:25.309Z,15.02
2022-10-18T03:02:29.470Z,17.67
2022-10-18T03:03:33.430Z,15.02
2022-10-18T03:04:39.125Z,13.63
2022-10-18T03:05:41.978Z,15.02
2022-10-18T03:06:46.409Z,16.33
2022-10-18T03:07:49.309Z,17.38
2022-10-18T03:08:53.317Z,16.90
2022-10-18T03:09:56.416Z,14.52
2022-10-18T03:11:00.659Z,14.10
2022-10-18T03:13:22.140Z,12.25
2022-10-18T03:14:25.397Z,13.80
2022-10-18T03:15:29.349Z,13.00
2022-10-18T03:16:32.459Z,11.75
2022-10-18T03:17:36.541Z,13.23
2022-10-18T03:18:39.500Z,13.68
2022-10-18T03:19:44.948Z,12.65
2022-10-18T03:20:48.082Z,11.98
2022-10-18T03:21:52.048Z,13.70
2022-10-18T03:22:55.090Z,15.75
2022-10-18T03:24:00.244Z,12.80
2022-10-18T03:25:03.379Z,13.73
2022-10-18T03:26:09.900Z,13.95
2022-10-18T03:27:12.861Z,16.08
2022-10-18T03:28:17.252Z,16.27
2022-10-18T03:29:20.810Z,16.17
2022-10-18T03:30:27.793Z,16.52
2022-10-18T03:32:40.460Z,12.68
2022-10-18T03:33:46.981Z,13.50
2022-10-18T03:34:52.408Z,15.40
2022-10-18T03:35:55.839Z,15.73
2022-10-18T03:37:02.146Z,20.23
2022-10-18T03:38:07.720Z,14.63
2022-10-18T03:39:13.279Z,14.95
2022-10-18T03:40:16.461Z,20.63
2022-10-18T03:41:21.092Z,17.17
2022-10-18T03:42:24.112Z,17.08
2022-10-18T03:43:28.594Z,14.15
2022-10-18T03:44:31.609Z,14.90
2022-10-18T03:45:35.751Z,16.60
2022-10-18T03:46:38.978Z,23.52
2022-10-18T03:47:43.603Z,16.23
2022-10-18T03:48:47.627Z,15.63
2022-10-18T03:49:56.246Z,16.60
2022-10-18T03:51:01.450Z,15.02
2022-10-18T03:52:04.357Z,15.70
2022-10-18T03:53:11.283Z,17.15
2022-10-18T03:54:14.490Z,16.45
2022-10-18T03:55:18.951Z,16.40
2022-10-18T03:56:21.820Z,15.80
2022-10-18T03:57:26.318Z,18.27
2022-10-18T03:58:29.242Z,24.38
2022-10-18T03:59:33.389Z,22.77
2022-10-18T04:00:39.256Z,18.95
2022-10-18T04:01:43.231Z,17.83
2022-10-18T04:02:50.800Z,19.70
2022-10-18T04:03:57.709Z,14.07
2022-10-18T04:05:02.262Z,15.48
2022-10-18T04:06:08.037Z,15.68
2022-10-18T04:07:11.177Z,17.50
2022-10-18T04:08:15.249Z,15.80
2022-10-18T04:09:18.651Z,14.30
2022-10-18T04:10:25.804Z,19.70
2022-10-18T04:11:28.667Z,17.38
2022-10-18T04:12:33.319Z,18.70
2022-10-18T04:13:36.609Z,17.83
2022-10-18T04:14:40.551Z,17.90
2022-10-18T04:15:43.899Z,17.48
2022-10-18T04:16:47.837Z,21.48
2022-10-18T04:17:51.019Z,22.13
2022-10-18T04:18:55.223Z,20.13
2022-10-18T04:19:58.452Z,23.42
2022-10-18T04:21:03.860Z,21.52
2022-10-18T04:22:06.887Z,24.15
2022-10-18T04:23:10.960Z,22.83
2022-10-18T04:24:14.352Z,19.67
2022-10-18T04:25:18.727Z,22.38
2022-10-18T04:26:22.050Z,19.67
2022-10-18T04:27:26.052Z,20.02
2022-10-18T04:28:29.196Z,17.27
2022-10-18T04:29:33.160Z,17.50
2022-10-18T04:30:36.399Z,17.80
2022-10-18T04:31:40.327Z,18.52
2022-10-18T04:32:43.266Z,18.63
2022-10-18T04:33:47.400Z,21.70
2022-10-18T04:34:50.816Z,19.35
2022-10-18T04:35:55.125Z,17.45
2022-10-18T04:37:00.529Z,17.92
2022-10-18T04:38:03.478Z,20.63
2022-10-18T04:39:07.427Z,17.13
2022-10-18T04:40:12.501Z,23.27
2022-10-18T04:41:16.517Z,19.15
2022-10-18T04:42:19.567Z,17.98
2022-10-18T04:43:23.505Z,19.80
2022-10-18T04:44:26.389Z,16.95
2022-10-18T04:45:30.449Z,17.05
2022-10-18T04:46:34.430Z,19.60
2022-10-18T04:47:38.700Z,21.83
2022-10-18T04:48:42.018Z,18.48
2022-10-18T04:49:46.845Z,18.48
2022-10-18T04:50:50.102Z,20.27
2022-10-18T04:51:54.250Z,16.35
2022-10-18T04:52:58.602Z,19.60
2022-10-18T04:54:02.561Z,18.45
2022-10-18T04:55:07.421Z,20.85
2022-10-18T04:56:10.365Z,19.60
2022-10-18T04:57:14.291Z,19.58
2022-10-18T04:58:17.538Z,16.23
2022-10-18T04:59:21.990Z,17.88
2022-10-18T05:00:25.608Z,17.10
2022-10-18T05:01:29.755Z,19.35
2022-10-18T05:02:32.881Z,15.73
2022-10-18T05:03:36.988Z,15.18
2022-10-18T05:04:40.038Z,21.10
2022-10-18T05:06:03.247Z,20.52
2022-10-18T05:07:06.810Z,19.05
2022-10-18T05:08:12.221Z,17.48
2022-10-18T05:09:15.538Z,18.40
2022-10-18T05:10:19.888Z,21.98
2022-10-18T05:11:22.986Z,24.75
2022-10-18T05:12:27.043Z,31.05
2022-10-18T05:13:30.483Z,23.25
2022-10-18T05:14:34.450Z,21.65
2022-10-18T05:15:37.357Z,24.15
2022-10-18T05:16:41.379Z,25.08
2022-10-18T05:17:44.409Z,27.88
2022-10-18T05:18:48.484Z,25.00
2022-10-18T05:19:51.381Z,32.05
2022-10-18T05:20:55.450Z,30.40
2022-10-18T05:21:58.454Z,20.17
2022-10-18T05:23:02.408Z,26.60
2022-10-18T05:24:07.177Z,29.50
2022-10-18T05:25:11.566Z,27.50
2022-10-18T05:26:14.510Z,29.50
2022-10-18T05:27:18.517Z,28.48
2022-10-18T05:28:38.763Z,30.35
2022-10-18T05:29:43.889Z,29.17
2022-10-18T05:30:46.893Z,23.80
2022-10-18T05:31:51.112Z,26.05
2022-10-18T05:32:54.946Z,31.20
2022-10-18T05:33:59.180Z,33.30
2022-10-18T05:35:02.499Z,27.50
2022-10-18T05:36:07.139Z,24.77
2022-10-18T05:37:10.367Z,27.95
2022-10-18T05:38:14.513Z,29.65
2022-10-18T05:39:20.499Z,29.17
2022-10-18T05:40:23.509Z,30.25
2022-10-18T05:41:27.617Z,31.48
2022-10-18T05:42:31.114Z,32.65
2022-10-18T05:43:36.100Z,33.88
2022-10-18T05:44:39.111Z,29.73
2022-10-18T05:45:49.165Z,31.23
2022-10-18T05:46:53.245Z,26.67
2022-10-18T05:47:56.390Z,30.98
2022-10-18T05:49:00.576Z,32.22
2022-10-18T05:50:03.761Z,31.98
2022-10-18T05:51:07.907Z,32.67
2022-10-18T05:52:10.808Z,33.45
2022-10-18T05:53:35.202Z,30.15
2022-10-18T05:54:40.161Z,31.08
2022-10-18T05:55:44.223Z,30.42
2022-10-18T05:56:47.327Z,28.75
2022-10-18T05:57:51.595Z,29.25
2022-10-18T05:58:54.619Z,28.85
2022-10-18T05:59:58.598Z,27.67
2022-10-18T06:01:02.384Z,27.98
2022-10-18T06:02:06.541Z,26.33
2022-10-18T06:03:09.449Z,25.42
2022-10-18T06:04:13.707Z,24.80
2022-10-18T06:05:16.757Z,24.80
2022-10-18T06:06:20.790Z,23.33
2022-10-18T06:07:23.786Z,21.85
2022-10-18T06:08:27.848Z,21.05
2022-10-18T06:09:30.907Z,19.90
2022-10-18T06:10:36.468Z,18.63
2022-10-18T06:11:39.430Z,16.73
2022-10-18T06:12:43.509Z,15.48
2022-10-18T06:13:48.813Z,16.00
2022-10-18T06:14:51.782Z,13.90
2022-10-18T06:15:57.725Z,13.73
2022-10-18T06:17:00.708Z,13.50
2022-10-18T06:18:04.781Z,14.70
2022-10-18T06:19:07.830Z,14.23
2022-10-18T06:20:12.337Z,15.38
2022-10-18T06:21:15.460Z,13.30
2022-10-18T06:22:19.582Z,14.45
2022-10-18T06:23:22.580Z,15.07
2022-10-18T06:24:26.888Z,16.17
2022-10-18T06:25:29.838Z,15.05
2022-10-18T06:26:35.328Z,13.90
2022-10-18T06:27:38.259Z,13.27
2022-10-18T06:28:42.281Z,12.45
2022-10-18T06:29:46.370Z,11.32
2022-10-18T06:30:49.441Z,11.98
2022-10-18T06:31:53.436Z,11.68
2022-10-18T06:32:59.793Z,11.05
2022-10-18T06:34:04.640Z,10.85
2022-10-18T06:35:08.632Z,10.27
2022-10-18T06:36:14.906Z,10.25
2022-10-18T06:37:18.010Z,10.63
2022-10-18T06:38:22.143Z,9.57
2022-10-18T06:39:26.357Z,10.95
2022-10-18T06:40:31.038Z,9.90
2022-10-18T06:41:36.483Z,9.68
2022-10-18T06:43:00.654Z,9.65
2022-10-18T06:44:14.117Z,9.40
2022-10-18T06:45:18.563Z,9.60
2022-10-18T06:46:22.490Z,8.30
2022-10-18T06:47:25.490Z,8.98
2022-10-18T06:48:29.428Z,8.40
2022-10-18T06:49:32.320Z,9.18
2022-10-18T06:50:36.389Z,8.70
2022-10-18T06:51:40.479Z,9.93
2022-10-18T06:52:43.660Z,10.63
2022-10-18T06:54:05.922Z,10.27
2022-10-18T06:55:11.819Z,10.63
2022-10-18T06:56:14.718Z,10.15
2022-10-18T06:57:20.491Z,9.38
2022-10-18T06:58:23.414Z,9.70
2022-10-18T06:59:30.374Z,9.07
2022-10-18T07:00:34.493Z,9.82
2022-10-18T07:01:38.690Z,9.13
2022-10-18T07:02:42.857Z,9.55
2022-10-18T07:03:46.762Z,10.63
2022-10-18T07:04:50.818Z,9.93
2022-10-18T07:05:53.795Z,10.10
2022-10-18T07:06:57.801Z,9.18
2022-10-18T07:08:00.751Z,9.38
2022-10-18T07:09:05.002Z,9.93
2022-10-18T07:10:11.190Z,8.73
2022-10-18T07:11:18.724Z,9.63
2022-10-18T07:12:23.186Z,9.27
2022-10-18T07:13:32.911Z,9.00
2022-10-18T07:14:36.310Z,10.40
2022-10-18T07:15:40.321Z,10.93
2022-10-18T07:16:44.386Z,11.55
2022-10-18T07:17:48.126Z,11.50
2022-10-18T07:18:53.398Z,11.50
2022-10-18T07:19:56.409Z,10.40
2022-10-18T07:21:03.081Z,10.70
2022-10-18T07:22:07.268Z,12.50
2022-10-18T07:23:11.947Z,12.40
2022-10-18T07:24:16.132Z,12.52
2022-10-18T07:25:19.117Z,9.10
2022-10-18T07:26:25.151Z,9.80
2022-10-18T07:27:30.942Z,8.65
2022-10-18T07:28:34.927Z,11.57
2022-10-18T07:29:39.929Z,9.75
2022-10-18T07:30:43.008Z,8.75
2022-10-18T07:31:47.278Z,7.22
2022-10-18T07:32:52.883Z,8.02
2022-10-18T07:33:55.780Z,7.78
2022-10-18T07:34:59.840Z,7.20
2022-10-18T07:36:03.201Z,7.05
2022-10-18T07:37:07.309Z,7.25
2022-10-18T07:38:10.440Z,8.02
2022-10-18T07:39:14.572Z,8.02
2022-10-18T07:40:17.758Z,7.97
2022-10-18T07:41:22.537Z,8.30
2022-10-18T07:42:25.800Z,7.10
2022-10-18T07:43:31.851Z,6.82
2022-10-18T07:44:34.909Z,7.93
2022-10-18T07:45:39.096Z,8.35
2022-10-18T07:46:43.240Z,7.65
2022-10-18T07:47:46.684Z,7.07
2022-10-18T07:48:51.311Z,7.55
2022-10-18T07:49:56.137Z,6.47
2022-10-18T07:51:00.537Z,7.45
2022-10-18T07:52:05.057Z,6.03
2022-10-18T07:53:08.096Z,6.03
2022-10-18T07:54:12.079Z,6.38
2022-10-18T07:55:16.370Z,7.45
2022-10-18T07:56:22.668Z,6.38
2022-10-18T07:57:26.760Z,5.80
2022-10-18T07:58:32.738Z,5.63
2022-10-18T07:59:37.022Z,6.15
2022-10-18T08:00:40.094Z,5.47
2022-10-18T08:01:44.250Z,5.93
2022-10-18T08:02:47.361Z,5.72
2022-10-18T08:03:53.180Z,6.15
2022-10-18T08:04:57.445Z,5.43
2022-10-18T08:06:00.570Z,5.45
2022-10-18T08:07:04.577Z,5.40
2022-10-18T08:08:08.182Z,7.65
2022-10-18T08:09:12.572Z,5.60
2022-10-18T08:10:15.776Z,5.30
2022-10-18T08:11:22.039Z,4.85
2022-10-18T08:12:26.008Z,4.90
2022-10-18T08:13:30.710Z,4.70
2022-10-18T08:14:34.728Z,5.43
2022-10-18T08:15:37.592Z,4.47
2022-10-18T08:16:41.652Z,5.10
2022-10-18T08:17:44.631Z,4.75
2022-10-18T08:18:48.640Z,5.63
2022-10-18T08:20:11.353Z,4.65
2022-10-18T08:21:18.163Z,4.88
2022-10-18T08:22:23.018Z,4.60
2022-10-18T08:23:27.128Z,4.55
2022-10-18T08:24:31.120Z,4.50
2022-10-18T08:25:34.115Z,5.30
2022-10-18T08:26:38.109Z,4.50
2022-10-18T08:27:41.009Z,4.80
2022-10-18T08:28:54.129Z,4.57
2022-10-18T08:30:03.050Z,4.65
2022-10-18T08:31:07.210Z,4.72
2022-10-18T08:32:11.228Z,5.10
2022-10-18T08:33:14.328Z,4.78
2022-10-18T08:34:19.792Z,4.82
2022-10-18T08:35:23.049Z,5.40
2022-10-18T08:36:27.430Z,5.60
2022-10-18T08:37:30.963Z,5.35
2022-10-18T08:38:35.548Z,5.10
2022-10-18T08:39:38.402Z,5.72
2022-10-18T08:40:44.937Z,6.03
2022-10-18T08:42:09.649Z,7.80
2022-10-18T08:43:21.747Z,4.32
2022-10-18T08:44:29.248Z,4.43
2022-10-18T08:45:43.126Z,4.43
2022-10-18T08:46:48.466Z,4.50
2022-10-18T08:47:54.059Z,4.38
2022-10-18T08:48:57.567Z,3.88
2022-10-18T08:50:04.128Z,3.90
2022-10-18T08:51:14.709Z,4.38
2022-10-18T08:52:31.476Z,3.95
2022-10-18T08:53:45.609Z,4.30
2022-10-18T08:54:54.889Z,3.92
2022-10-18T08:56:04.470Z,3.60
2022-10-18T08:57:15.238Z,4.25
2022-10-18T08:58:21.474Z,4.72
2022-10-18T08:59:25.876Z,4.85
2022-10-18T09:00:34.997Z,3.90
2022-10-18T09:01:44.702Z,5.63
2022-10-18T09:02:57.501Z,4.18
2022-10-18T09:04:19.601Z,3.97
2022-10-18T09:05:28.888Z,3.83
2022-10-18T09:06:34.406Z,4.15
2022-10-18T09:08:13.136Z,4.07
2022-10-18T09:09:25.087Z,3.80
2022-10-18T09:10:36.576Z,3.50
2022-10-18T09:11:52.348Z,3.55
2022-10-18T09:13:09.479Z,3.25
2022-10-18T09:14:46.118Z,3.60
2022-10-18T09:15:56.981Z,4.07
2022-10-18T09:17:09.548Z,4.13
2022-10-18T09:18:26.157Z,3.70
2022-10-18T09:19:39.679Z,4.10
2022-10-18T09:20:51.652Z,3.97
2022-10-18T09:21:57.124Z,4.65
2022-10-18T09:23:06.589Z,3.80
2022-10-18T09:24:13.636Z,4.18
2022-10-18T09:25:21.066Z,3.67
2022-10-18T09:26:26.377Z,4.70
2022-10-18T09:27:33.910Z,5.82
2022-10-18T09:28:43.322Z,4.35
2022-10-18T09:29:58.557Z,5.22
2022-10-18T09:31:08.597Z,3.58
2022-10-18T09:32:22.832Z,4.20
2022-10-18T09:33:35.257Z,3.95
2022-10-18T09:34:43.382Z,3.90
2022-10-18T09:35:51.368Z,3.53
2022-10-18T09:36:56.176Z,3.45
2022-10-18T09:38:04.059Z,3.88
2022-10-18T09:39:13.071Z,3.30
2022-10-18T09:40:19.127Z,3.95
2022-10-18T09:41:27.079Z,3.00
2022-10-18T09:42:33.394Z,4.00
2022-10-18T09:43:47.686Z,4.30
2022-10-18T09:44:54.727Z,3.92
2022-10-18T09:45:59.208Z,3.65
2022-10-18T09:47:13.409Z,3.65
2022-10-18T09:48:22.196Z,3.90
2022-10-18T09:49:31.487Z,3.78
2022-10-18T09:50:38.107Z,3.67
2022-10-18T09:51:43.609Z,3.35
2022-10-18T09:52:51.289Z,4.22
2022-10-18T09:54:04.572Z,3.35
2022-10-18T09:55:14.149Z,4.50
2022-10-18T09:56:21.817Z,3.85
2022-10-18T09:57:27.891Z,4.25
2022-10-18T09:58:41.944Z,3.53
2022-10-18T09:59:48.319Z,4.63
2022-10-18T10:00:52.344Z,3.72
2022-10-18T10:01:56.728Z,3.42
2022-10-18T10:03:01.599Z,3.97
2022-10-18T10:04:06.068Z,3.67
2022-10-18T10:05:14.133Z,4.70
2022-10-18T10:06:23.723Z,5.57
2022-10-18T10:07:32.672Z,3.60
2022-10-18T10:08:38.199Z,3.38
2022-10-18T10:09:46.352Z,3.72
2022-10-18T10:10:49.891Z,3.13
2022-10-18T10:11:55.859Z,3.25
2022-10-18T10:13:07.050Z,4.53
2022-10-18T10:14:13.870Z,3.70
2022-10-18T10:15:20.869Z,3.53
2022-10-18T10:16:24.057Z,4.57
2022-10-18T10:17:30.628Z,3.22
2022-10-18T10:18:38.546Z,3.47
2022-10-18T10:19:57.202Z,3.65
2022-10-18T10:21:03.441Z,4.22
2022-10-18T10:22:09.757Z,5.20
2022-10-18T10:23:20.119Z,3.70
2022-10-18T10:24:30.392Z,3.85
2022-10-18T10:25:36.088Z,2.97
2022-10-18T10:26:40.274Z,3.58
2022-10-18T10:27:46.129Z,4.10
2022-10-18T10:28:49.485Z,3.67
2022-10-18T10:30:04.199Z,3.75
2022-10-18T10:31:26.519Z,4.00
2022-10-18T10:32:31.881Z,3.67
2022-10-18T10:33:40.779Z,4.00
2022-10-18T10:34:44.968Z,3.10
2022-10-18T10:35:59.811Z,2.95
2022-10-18T10:37:03.019Z,3.25
2022-10-18T10:38:07.838Z,3.22
2022-10-18T10:39:18.549Z,3.53
2022-10-18T10:40:25.242Z,3.58
2022-10-18T10:42:59.935Z,4.15
2022-10-18T10:44:17.619Z,3.30
2022-10-18T10:45:21.088Z,6.03
2022-10-18T10:46:26.630Z,3.20
2022-10-18T10:47:32.168Z,3.33
2022-10-18T10:48:47.610Z,3.10
2022-10-18T10:49:50.581Z,3.00
2022-10-18T10:50:58.676Z,3.08
2022-10-18T10:52:26.310Z,3.90
2022-10-18T10:53:30.639Z,2.97
2022-10-18T10:54:36.936Z,3.77
2022-10-18T10:55:39.809Z,4.35
2022-10-18T10:56:54.226Z,7.75
2022-10-18T10:57:57.185Z,3.88
2022-10-18T10:59:08.646Z,3.00
2022-10-18T11:00:36.356Z,3.00
2022-10-18T11:01:40.370Z,3.33
2022-10-18T11:02:51.133Z,3.92
2022-10-18T11:04:26.115Z,3.45
2022-10-18T11:05:29.629Z,3.08
2022-10-18T11:06:50.097Z,3.40
2022-10-18T11:07:55.486Z,2.88
2022-10-18T11:09:00.619Z,3.42
2022-10-18T11:10:07.952Z,3.10
2022-10-18T11:11:20.633Z,3.27
2022-10-18T11:12:33.499Z,3.15
2022-10-18T11:13:56.994Z,2.97
2022-10-18T11:15:22.412Z,3.70
2022-10-18T11:16:32.988Z,3.50
2022-10-18T11:17:43.523Z,4.10
2022-10-18T11:18:50.910Z,4.40
2022-10-18T11:20:07.740Z,3.63
2022-10-18T11:21:13.661Z,3.63
2022-10-18T11:22:19.525Z,3.77
2022-10-18T11:23:27.419Z,4.03
2022-10-18T11:24:31.299Z,3.00
2022-10-18T11:25:49.255Z,3.50
2022-10-18T11:26:56.348Z,2.90
2022-10-18T11:28:03.291Z,3.63
2022-10-18T11:29:25.147Z,3.70
2022-10-18T11:30:38.098Z,2.75
2022-10-18T11:31:48.057Z,3.53
2022-10-18T11:32:58.858Z,3.00
2022-10-18T11:34:14.850Z,3.20
2022-10-18T11:35:34.579Z,3.40
2022-10-18T11:36:54.793Z,3.20
2022-10-18T11:38:15.626Z,2.90
2022-10-18T11:39:24.432Z,3.07
2022-10-18T11:40:43.889Z,3.35
2022-10-18T11:41:51.100Z,2.97
2022-10-18T11:42:59.310Z,3.47
2022-10-18T11:44:04.999Z,2.90
2022-10-18T11:45:19.459Z,3.10
2022-10-18T11:46:30.200Z,3.07
2022-10-18T11:47:39.958Z,3.13
2022-10-18T11:49:00.848Z,3.95
2022-10-18T11:50:12.318Z,3.20
2022-10-18T11:51:34.124Z,3.30
2022-10-18T11:52:47.364Z,2.93
2022-10-18T11:54:00.178Z,3.37
2022-10-18T11:55:17.671Z,3.30
2022-10-18T11:56:23.782Z,2.97
2022-10-18T11:57:41.191Z,3.72
2022-10-18T11:58:55.522Z,6.78
2022-10-18T12:00:04.452Z,3.40
2022-10-18T12:01:18.355Z,3.63
2022-10-18T12:02:39.971Z,3.00
2022-10-18T12:03:54.682Z,3.30
2022-10-18T12:06:32.078Z,2.60
2022-10-18T12:07:38.972Z,3.17
2022-10-18T12:08:45.048Z,3.37
2022-10-18T12:09:50.073Z,3.13
2022-10-18T12:11:05.525Z,3.50
2022-10-18T12:12:14.210Z,3.20
2022-10-18T12:13:19.699Z,3.40
2022-10-18T12:14:27.514Z,3.58
2022-10-18T12:15:32.267Z,3.50
2022-10-18T12:17:07.726Z,2.83
2022-10-18T12:18:06.085Z,3.00
2022-10-18T12:19:15.161Z,3.07
2022-10-18T12:20:24.789Z,5.93
2022-10-18T12:21:32.683Z,3.20
2022-10-18T12:22:38.728Z,3.33
2022-10-18T12:23:46.928Z,3.30
2022-10-18T12:24:50.182Z,3.80
2022-10-18T12:25:58.440Z,3.40
2022-10-18T12:27:03.066Z,3.27
2022-10-18T12:28:10.259Z,3.40
2022-10-18T12:29:19.947Z,4.03
2022-10-18T12:30:29.758Z,3.27
2022-10-18T12:31:39.034Z,3.13
2022-10-18T12:32:56.455Z,3.70
2022-10-18T12:34:25.811Z,3.93
2022-10-18T12:35:32.641Z,3.67
2022-10-18T12:36:51.806Z,3.00
2022-10-18T12:38:07.138Z,3.30
2022-10-18T12:39:14.427Z,3.07
2022-10-18T12:40:21.423Z,3.30
2022-10-18T12:41:27.501Z,3.30
2022-10-18T12:42:32.050Z,3.77
2022-10-18T12:43:37.882Z,3.33
2022-10-18T12:44:40.822Z,2.83
2022-10-18T12:45:53.628Z,3.40
2022-10-18T12:46:59.571Z,5.00
2022-10-18T12:48:05.058Z,3.33
2022-10-18T12:49:12.820Z,3.63
2022-10-18T12:50:28.610Z,4.07
2022-10-18T12:51:32.639Z,3.50
2022-10-18T12:52:37.417Z,3.60
2022-10-18T12:53:42.850Z,3.73
2022-10-18T12:55:04.490Z,3.80
2022-10-18T12:56:38.278Z,3.30
2022-10-18T12:58:15.672Z,3.57
2022-10-18T12:59:54.007Z,3.50
2022-10-18T13:00:58.871Z,4.03
2022-10-18T13:02:29.179Z,3.60
2022-10-18T13:04:01.279Z,3.50
2022-10-18T13:05:54.878Z,3.30
2022-10-18T13:07:19.884Z,4.47
2022-10-18T13:08:39.981Z,3.90
2022-10-18T13:09:46.369Z,3.33
2022-10-18T13:11:33.511Z,3.13
2022-10-18T13:12:59.017Z,3.57
2022-10-18T13:14:59.263Z,4.67
2022-10-18T13:17:01.655Z,3.97
2022-10-18T13:18:12.247Z,3.27
2022-10-18T13:19:22.169Z,3.37
2022-10-18T13:20:34.637Z,3.80
2022-10-18T13:21:44.617Z,3.63
2022-10-18T13:23:00.381Z,3.47
2022-10-18T13:24:18.397Z,3.77
2022-10-18T13:25:22.701Z,3.43
2022-10-18T13:26:32.749Z,2.87
2022-10-18T13:27:45.382Z,3.50
2022-10-18T13:28:54.797Z,3.53
2022-10-18T13:30:29.179Z,4.27
2022-10-18T13:31:40.398Z,3.43
2022-10-18T13:32:49.919Z,3.70
2022-10-18T13:33:54.028Z,3.53
2022-10-18T13:34:57.008Z,3.90
2022-10-18T13:36:02.450Z,3.57
2022-10-18T13:37:07.639Z,3.50
2022-10-18T13:38:48.689Z,4.17
2022-10-18T13:40:17.587Z,3.40
2022-10-18T13:42:34.088Z,3.57
2022-10-18T13:43:56.968Z,3.50
2022-10-18T13:45:37.762Z,4.77
2022-10-18T13:47:20.195Z,3.73
2022-10-18T13:48:49.269Z,3.63
2022-10-18T13:51:46.492Z,3.60
2022-10-18T13:53:29.919Z,3.20
2022-10-18T13:54:56.021Z,3.47
2022-10-18T13:56:18.899Z,8.57
2022-10-18T13:57:32.449Z,3.80
2022-10-18T13:58:48.740Z,3.40
2022-10-18T14:00:28.546Z,4.00
2022-10-18T14:01:41.746Z,4.37
2022-10-18T14:03:01.990Z,3.80
2022-10-18T14:05:11.120Z,4.37
2022-10-18T14:06:25.162Z,3.80
2022-10-18T14:07:28.539Z,4.23
2022-10-18T14:08:36.842Z,3.80
2022-10-18T14:09:49.867Z,3.60
2022-10-18T14:11:04.001Z,3.43
2022-10-18T14:12:15.139Z,3.40
2022-10-18T14:13:22.860Z,3.83
2022-10-18T14:14:34.198Z,4.20
2022-10-18T14:15:41.199Z,5.33
2022-10-18T14:16:48.277Z,3.87
2022-10-18T14:17:53.920Z,3.87
2022-10-18T14:19:01.938Z,6.67
2022-10-18T14:20:16.984Z,4.03
2022-10-18T14:21:30.257Z,3.33
2022-10-18T14:22:39.470Z,6.87
2022-10-18T14:23:44.858Z,4.20
2022-10-18T14:24:51.454Z,3.83
2022-10-18T14:25:58.869Z,4.20
2022-10-18T14:27:20.898Z,3.90
2022-10-18T14:28:36.325Z,3.90
2022-10-18T14:29:46.179Z,4.25
2022-10-18T14:30:53.827Z,4.07
2022-10-18T14:31:58.620Z,4.17
2022-10-18T14:33:01.796Z,4.20
2022-10-18T14:34:05.756Z,4.37
2022-10-18T14:35:33.648Z,3.90
2022-10-18T14:36:41.116Z,3.97
2022-10-18T14:37:44.094Z,4.00
2022-10-18T14:38:50.998Z,4.30
2022-10-18T14:39:53.940Z,4.17
2022-10-18T14:41:13.062Z,4.07
2022-10-18T14:42:21.880Z,3.97
2022-10-18T14:43:25.755Z,4.17
2022-10-18T14:44:31.719Z,4.70
2022-10-18T14:45:34.720Z,3.90
2022-10-18T14:46:43.469Z,4.33
2022-10-18T14:47:46.484Z,4.80
2022-10-18T14:48:54.989Z,4.70
2022-10-18T14:49:59.020Z,4.43
2022-10-18T14:51:04.418Z,4.40
2022-10-18T14:52:13.846Z,4.68
2022-10-18T14:53:20.818Z,5.23
2022-10-18T14:54:30.733Z,4.63
2022-10-18T14:55:35.840Z,4.90
2022-10-18T14:56:42.128Z,4.35
2022-10-18T14:57:47.445Z,4.63
2022-10-18T14:58:51.060Z,5.38
2022-10-18T14:59:58.357Z,5.30
2022-10-18T15:01:01.384Z,4.45